createdAt,value
2018-10-18T00:00:49.335Z,12.47
2018-10-18T00:03:16.867Z,13.27
2018-10-18T00:05:44.288Z,12.27
2018-10-18T00:08:11.937Z,12.17
2018-10-18T00:10:39.339Z,12.93
2018-10-18T00:13:06.746Z,13.07
2018-10-18T00:15:34.207Z,12.70
2018-10-18T00:18:01.663Z,13.13
2018-10-18T00:20:29.079Z,13.63
2018-10-18T00:22:56.536Z,13.00
2018-10-18T00:25:23.980Z,12.60
2018-10-18T00:27:51.427Z,12.70
2018-10-18T00:30:18.934Z,14.07
2018-10-18T00:32:46.332Z,13.43
2018-10-18T00:35:13.851Z,13.37
2018-10-18T00:37:41.272Z,12.50
2018-10-18T00:40:10.235Z,13.17
2018-10-18T00:42:37.671Z,12.47
2018-10-18T00:45:06.063Z,12.60
2018-10-18T00:47:33.515Z,13.77
2018-10-18T00:50:01.003Z,12.40
2018-10-18T00:52:28.395Z,13.17
2018-10-18T00:54:55.821Z,12.77
2018-10-18T00:57:23.316Z,12.47
2018-10-18T00:59:50.764Z,12.30
2018-10-18T01:02:18.315Z,12.27
2018-10-18T01:04:45.652Z,12.93
2018-10-18T01:07:13.122Z,12.70
2018-10-18T01:09:40.555Z,13.13
2018-10-18T01:12:08.089Z,12.40
2018-10-18T01:14:35.519Z,13.27
2018-10-18T01:17:04.664Z,13.03
2018-10-18T01:19:33.711Z,13.43
2018-10-18T01:22:01.708Z,13.87
2018-10-18T01:24:29.159Z,12.07
2018-10-18T01:26:56.664Z,13.87
2018-10-18T01:29:24.614Z,13.70
2018-10-18T01:31:52.115Z,13.70
2018-10-18T01:34:19.600Z,14.00
2018-10-18T01:36:47.023Z,13.17
2018-10-18T01:39:14.462Z,13.50
2018-10-18T01:41:41.920Z,13.23
2018-10-18T01:44:10.871Z,12.67
2018-10-18T01:46:38.739Z,14.03
2018-10-18T01:49:06.961Z,13.23
2018-10-18T01:51:35.185Z,13.73
2018-10-18T01:54:03.128Z,13.57
2018-10-18T01:56:30.998Z,13.00
2018-10-18T01:58:58.907Z,12.57
2018-10-18T02:01:27.387Z,13.47
2018-10-18T02:03:54.824Z,13.20
2018-10-18T02:06:22.329Z,13.33
2018-10-18T02:08:49.748Z,13.13
2018-10-18T02:11:17.256Z,13.70
2018-10-18T02:13:44.794Z,13.13
2018-10-18T02:16:12.166Z,13.13
2018-10-18T02:18:39.580Z,13.17
2018-10-18T02:21:07.677Z,14.00
2018-10-18T02:23:35.311Z,13.23
2018-10-18T02:26:02.727Z,13.77
2018-10-18T02:28:30.164Z,13.23
2018-10-18T02:30:57.600Z,13.30
2018-10-18T02:33:25.077Z,12.97
2018-10-18T02:35:52.586Z,12.60
2018-10-18T02:38:20.193Z,11.77
2018-10-18T02:40:47.624Z,12.17
2018-10-18T02:43:15.079Z,12.83
2018-10-18T02:45:42.526Z,12.73
2018-10-18T02:48:10.073Z,11.73
2018-10-18T02:50:37.419Z,12.37
2018-10-18T02:53:04.911Z,12.30
2018-10-18T02:55:32.320Z,11.53
2018-10-18T02:57:59.751Z,11.33
2018-10-18T03:00:27.192Z,11.67
2018-10-18T03:02:54.698Z,12.03
2018-10-18T03:05:22.747Z,12.60
2018-10-18T03:07:50.172Z,12.23
2018-10-18T03:10:17.596Z,11.53
2018-10-18T03:12:45.051Z,13.03
2018-10-18T03:15:12.509Z,11.30
2018-10-18T03:17:39.963Z,12.00
2018-10-18T03:20:07.389Z,11.43
2018-10-18T03:22:34.803Z,11.40
2018-10-18T03:25:02.318Z,11.57
2018-10-18T03:27:29.756Z,10.77
2018-10-18T03:29:57.237Z,11.90
2018-10-18T03:32:24.709Z,11.87
2018-10-18T03:34:52.487Z,12.17
2018-10-18T03:37:19.919Z,12.00
2018-10-18T03:39:47.604Z,12.60
2018-10-18T03:42:15.188Z,12.80
2018-10-18T03:44:42.548Z,11.70
2018-10-18T03:47:10.008Z,12.53
2018-10-18T03:49:37.440Z,11.97
2018-10-18T03:52:05.508Z,12.13
2018-10-18T03:54:33.056Z,12.27
2018-10-18T03:57:00.535Z,13.20
2018-10-18T03:59:28.150Z,13.97
2018-10-18T04:01:55.631Z,12.03
2018-10-18T04:04:23.120Z,12.33
2018-10-18T04:06:50.556Z,12.53
2018-10-18T04:09:17.993Z,13.80
2018-10-18T04:11:45.400Z,12.93
2018-10-18T04:14:12.815Z,13.90
2018-10-18T04:16:40.266Z,13.33
2018-10-18T04:19:07.692Z,13.23
2018-10-18T04:21:35.135Z,12.67
2018-10-18T04:24:02.681Z,12.87
2018-10-18T04:26:30.176Z,12.93
2018-10-18T04:28:57.655Z,13.33
2018-10-18T04:31:25.112Z,13.23
2018-10-18T04:33:52.627Z,13.77
2018-10-18T04:36:20.232Z,12.87
2018-10-18T04:38:47.557Z,13.77
2018-10-18T04:41:14.975Z,13.60
2018-10-18T04:43:46.569Z,12.87
2018-10-18T04:46:13.984Z,12.97
2018-10-18T04:48:41.646Z,13.27
2018-10-18T04:51:09.303Z,13.30
2018-10-18T04:53:36.947Z,13.20
2018-10-18T04:56:04.412Z,12.07
2018-10-18T04:58:32.008Z,13.67
2018-10-18T05:00:59.509Z,12.10
2018-10-18T05:03:26.923Z,13.13
2018-10-18T05:05:55.684Z,13.07
2018-10-18T05:08:24.199Z,13.37
2018-10-18T05:10:51.687Z,12.37
2018-10-18T05:13:19.229Z,12.90
2018-10-18T05:15:46.747Z,13.77
2018-10-18T05:18:14.932Z,13.70
2018-10-18T05:20:42.457Z,14.37
2018-10-18T05:23:09.987Z,14.30
2018-10-18T05:25:37.668Z,13.87
2018-10-18T05:28:05.244Z,14.60
2018-10-18T05:30:32.833Z,14.57
2018-10-18T05:33:00.620Z,15.60
2018-10-18T05:35:28.043Z,15.37
2018-10-18T05:37:55.520Z,15.23
2018-10-18T05:40:22.974Z,15.60
2018-10-18T05:42:50.443Z,17.00
2018-10-18T05:45:17.899Z,15.73
2018-10-18T05:47:45.379Z,18.00
2018-10-18T05:50:12.840Z,17.90
2018-10-18T05:52:40.472Z,17.57
2018-10-18T05:55:09.574Z,16.20
2018-10-18T05:57:37.322Z,18.17
2018-10-18T06:00:07.776Z,17.87
2018-10-18T06:02:35.351Z,16.60
2018-10-18T06:05:02.922Z,18.17
2018-10-18T06:07:30.495Z,17.37
2018-10-18T06:09:58.133Z,17.67
2018-10-18T06:12:25.661Z,17.23
2018-10-18T06:14:53.253Z,16.17
2018-10-18T06:17:20.803Z,17.33
2018-10-18T06:19:48.377Z,17.00
2018-10-18T06:22:15.942Z,17.13
2018-10-18T06:24:43.532Z,17.63
2018-10-18T06:27:11.089Z,17.53
2018-10-18T06:29:38.829Z,17.37
2018-10-18T06:32:06.428Z,17.43
2018-10-18T06:34:33.983Z,17.17
2018-10-18T06:37:01.591Z,16.77
2018-10-18T06:39:29.135Z,17.20
2018-10-18T06:41:58.400Z,17.57
2018-10-18T06:44:26.150Z,17.63
2018-10-18T06:46:53.883Z,17.60
2018-10-18T06:49:21.432Z,18.63
2018-10-18T06:51:49.082Z,18.90
2018-10-18T06:54:16.725Z,18.20
2018-10-18T06:56:44.483Z,17.43
2018-10-18T06:59:12.023Z,18.17
2018-10-18T07:01:39.588Z,16.50
2018-10-18T07:04:07.204Z,18.63
2018-10-18T07:06:34.795Z,18.90
2018-10-18T07:09:03.572Z,17.90
2018-10-18T07:11:31.378Z,18.73
2018-10-18T07:14:00.245Z,18.30
2018-10-18T07:16:28.563Z,21.03
2018-10-18T07:18:56.148Z,19.80
2018-10-18T07:21:23.769Z,19.00
2018-10-18T07:23:51.457Z,19.93
2018-10-18T07:26:19.036Z,18.27
2018-10-18T07:28:46.652Z,18.57
2018-10-18T07:31:14.300Z,19.87
2018-10-18T07:33:41.890Z,20.17
2018-10-18T07:36:09.523Z,20.87
2018-10-18T07:38:37.105Z,20.27
2018-10-18T07:41:04.866Z,20.67
2018-10-18T07:43:32.392Z,22.23
2018-10-18T07:46:00.031Z,21.10
2018-10-18T07:48:28.069Z,22.37
2018-10-18T07:50:55.587Z,22.63
2018-10-18T07:53:23.355Z,20.90
2018-10-18T07:55:50.911Z,22.97
2018-10-18T07:58:18.484Z,24.30
2018-10-18T08:00:46.354Z,24.37
2018-10-18T08:03:13.755Z,22.13
2018-10-18T08:05:41.294Z,23.33
2018-10-18T08:08:08.889Z,24.33
2018-10-18T08:10:36.430Z,24.70
2018-10-18T08:13:04.078Z,24.23
2018-10-18T08:15:31.622Z,25.33
2018-10-18T08:17:59.156Z,25.57
2018-10-18T08:20:26.740Z,25.77
2018-10-18T08:22:54.275Z,24.33
2018-10-18T08:25:21.815Z,26.67
2018-10-18T08:27:49.392Z,26.80
2018-10-18T08:30:17.004Z,24.93
2018-10-18T08:32:44.523Z,28.00
2018-10-18T08:35:12.547Z,27.23
2018-10-18T08:37:40.222Z,32.83
2018-10-18T08:40:07.937Z,36.17
2018-10-18T08:46:36.528Z,34.87
2018-10-18T08:49:04.376Z,40.30
2018-10-18T08:51:31.906Z,45.75
2018-10-18T08:53:59.463Z,44.23
2018-10-18T08:56:27.050Z,45.50
2018-10-18T08:58:55.157Z,46.42
2018-10-18T09:01:22.774Z,45.20
2018-10-18T09:03:50.337Z,48.65
2018-10-18T09:06:17.961Z,47.35
2018-10-18T09:08:45.904Z,47.95
2018-10-18T09:11:13.576Z,46.13
2018-10-18T09:13:41.100Z,50.35
2018-10-18T09:16:08.780Z,47.17
2018-10-18T09:18:36.285Z,47.75
2018-10-18T09:21:03.852Z,45.95
2018-10-18T09:23:31.443Z,49.30
2018-10-18T09:25:59.094Z,48.33
2018-10-18T09:28:26.643Z,48.75
2018-10-18T09:30:54.493Z,45.10
2018-10-18T09:33:22.050Z,46.92
2018-10-18T09:35:49.612Z,48.35
2018-10-18T09:38:17.227Z,46.92
2018-10-18T09:40:45.242Z,43.87
2018-10-18T09:43:12.767Z,44.18
2018-10-18T09:45:40.771Z,43.10
2018-10-18T09:48:08.264Z,40.28
2018-10-18T09:50:35.881Z,40.92
2018-10-18T09:53:03.521Z,43.05
2018-10-18T09:55:31.068Z,40.63
2018-10-18T09:57:58.743Z,36.53
2018-10-18T10:00:31.971Z,36.53
2018-10-18T10:03:05.247Z,40.90
2018-10-18T10:05:32.807Z,39.95
2018-10-18T10:08:00.527Z,40.43
2018-10-18T10:10:28.124Z,40.15
2018-10-18T10:12:55.669Z,37.28
2018-10-18T10:15:23.221Z,38.25
2018-10-18T10:17:50.797Z,34.85
2018-10-18T10:20:18.331Z,38.30
2018-10-18T10:22:46.876Z,37.55
2018-10-18T10:25:14.514Z,35.88
2018-10-18T10:27:42.029Z,35.65
2018-10-18T10:30:09.761Z,37.98
2018-10-18T10:32:37.331Z,34.03
2018-10-18T10:35:05.497Z,33.42
2018-10-18T10:37:33.100Z,34.88
2018-10-18T10:40:00.812Z,34.53
2018-10-18T10:42:28.391Z,34.88
2018-10-18T10:44:56.005Z,35.45
2018-10-18T10:47:23.559Z,35.92
2018-10-18T10:49:51.155Z,34.73
2018-10-18T10:52:18.845Z,33.25
2018-10-18T10:54:46.479Z,30.45
2018-10-18T10:57:14.129Z,30.77
2018-10-18T10:59:41.620Z,31.55
2018-10-18T11:02:09.237Z,29.90
2018-10-18T11:04:36.778Z,30.85
2018-10-18T11:07:04.538Z,29.87
2018-10-18T11:09:32.186Z,29.90
2018-10-18T11:11:59.765Z,29.02
2018-10-18T11:14:27.355Z,27.30
2018-10-18T11:16:54.938Z,28.55
2018-10-18T11:19:22.497Z,27.65
2018-10-18T11:21:50.141Z,26.17
2018-10-18T11:24:17.804Z,26.10
2018-10-18T11:26:45.364Z,24.18
2018-10-18T11:29:12.995Z,25.50
2018-10-18T11:31:40.636Z,28.02
2018-10-18T11:34:08.232Z,23.30
2018-10-18T11:36:35.856Z,28.32
2018-10-18T11:39:05.167Z,27.55
2018-10-18T11:41:32.865Z,24.85
2018-10-18T11:44:00.531Z,24.75
2018-10-18T11:46:28.132Z,24.47
2018-10-18T11:48:55.696Z,26.25
2018-10-18T11:51:23.316Z,24.98
2018-10-18T11:53:50.847Z,24.72
2018-10-18T11:59:20.775Z,27.22
2018-10-18T12:01:48.335Z,20.88
2018-10-18T12:04:16.471Z,25.32
2018-10-18T12:06:44.027Z,25.82
2018-10-18T12:09:11.786Z,22.48
2018-10-18T12:11:39.387Z,23.52
2018-10-18T12:14:07.768Z,21.95
2018-10-18T12:16:35.272Z,25.30
2018-10-18T12:19:03.017Z,22.85
2018-10-18T12:21:30.809Z,23.20
2018-10-18T12:23:58.403Z,26.12
2018-10-18T12:26:25.990Z,26.73
2018-10-18T12:28:53.642Z,23.92
2018-10-18T12:31:21.172Z,21.57
2018-10-18T12:33:48.741Z,21.25
2018-10-18T12:36:16.331Z,26.57
2018-10-18T12:38:43.900Z,25.90
2018-10-18T12:41:11.649Z,24.37
2018-10-18T12:43:39.128Z,24.30
2018-10-18T12:46:06.700Z,25.48
2018-10-18T12:48:34.322Z,25.35
2018-10-18T12:51:01.812Z,24.43
2018-10-18T12:53:29.667Z,23.10
2018-10-18T12:55:57.244Z,25.37
2018-10-18T12:58:25.872Z,24.12
2018-10-18T13:00:53.432Z,24.90
2018-10-18T13:03:20.965Z,24.40
2018-10-18T13:05:48.611Z,23.98
2018-10-18T13:08:16.269Z,20.85
2018-10-18T13:10:43.687Z,23.67
2018-10-18T13:13:11.309Z,24.95
2018-10-18T13:15:38.888Z,24.30
2018-10-18T13:18:06.492Z,21.52
2018-10-18T13:20:34.040Z,22.67
2018-10-18T13:23:01.713Z,21.40
2018-10-18T13:25:29.398Z,19.95
2018-10-18T13:27:56.880Z,21.37
2018-10-18T13:30:24.432Z,21.45
2018-10-18T13:32:52.031Z,20.45
2018-10-18T13:35:19.586Z,23.52
2018-10-18T13:37:47.124Z,23.62
2018-10-18T13:40:14.741Z,26.90
2018-10-18T13:42:42.306Z,27.05
2018-10-18T13:45:09.907Z,24.27
2018-10-18T13:47:37.477Z,25.30
2018-10-18T13:50:05.884Z,28.20
2018-10-18T13:52:33.952Z,29.37
2018-10-18T13:55:01.497Z,26.75
2018-10-18T13:57:29.056Z,25.50
2018-10-18T14:00:32.339Z,27.58
2018-10-18T14:02:59.907Z,30.77
2018-10-18T14:05:27.926Z,30.00
2018-10-18T14:07:56.010Z,29.15
2018-10-18T14:10:23.567Z,29.05
2018-10-18T14:12:51.843Z,27.30
2018-10-18T14:15:19.544Z,28.80
2018-10-18T14:17:47.146Z,28.42
2018-10-18T14:20:14.786Z,28.23
2018-10-18T14:22:42.275Z,30.52
2018-10-18T14:25:10.003Z,28.32
2018-10-18T14:27:37.623Z,28.12
2018-10-18T14:30:06.942Z,26.85
2018-10-18T14:32:34.571Z,26.65
2018-10-18T14:35:02.231Z,28.77
2018-10-18T14:37:29.832Z,29.25
2018-10-18T14:39:57.429Z,27.75
2018-10-18T14:42:24.944Z,27.10
2018-10-18T14:44:52.512Z,26.57
2018-10-18T14:47:21.572Z,27.48
2018-10-18T14:49:49.092Z,27.20
2018-10-18T14:52:16.736Z,27.35
2018-10-18T14:54:44.932Z,29.92
2018-10-18T14:57:13.497Z,27.02
2018-10-18T14:59:41.489Z,26.42
2018-10-18T15:02:09.247Z,26.95
2018-10-18T15:04:37.200Z,27.90
2018-10-18T15:07:04.820Z,27.65
2018-10-18T15:09:32.465Z,25.50
2018-10-18T15:12:00.072Z,27.05
2018-10-18T15:14:28.304Z,24.07
2018-10-18T15:16:55.953Z,26.33
2018-10-18T15:19:23.479Z,25.15
2018-10-18T15:21:51.031Z,23.75
2018-10-18T15:24:18.637Z,25.17
2018-10-18T15:26:46.433Z,23.65
2018-10-18T15:29:13.805Z,24.23
2018-10-18T15:31:41.388Z,25.35
2018-10-18T15:34:09.004Z,25.00
2018-10-18T15:36:36.611Z,24.98
2018-10-18T15:39:06.913Z,24.10
2018-10-18T15:41:34.621Z,23.73
2018-10-18T15:44:08.977Z,23.27
2018-10-18T15:46:37.057Z,24.02
2018-10-18T15:49:05.353Z,23.18
2018-10-18T15:51:33.085Z,22.73
2018-10-18T15:54:01.712Z,22.67
2018-10-18T15:56:29.212Z,23.50
2018-10-18T15:58:56.855Z,25.37
2018-10-18T16:01:24.483Z,24.55
2018-10-18T16:03:52.079Z,22.42
2018-10-18T16:06:24.606Z,23.62
2018-10-18T16:08:55.479Z,25.85
2018-10-18T16:11:23.442Z,23.95
2018-10-18T16:13:51.997Z,26.25
2018-10-18T16:16:21.013Z,25.17
2018-10-18T16:18:50.059Z,24.18
2018-10-18T16:21:17.932Z,21.37
2018-10-18T16:23:45.813Z,23.92
2018-10-18T16:26:13.613Z,24.43
2018-10-18T16:28:41.052Z,24.55
2018-10-18T16:31:08.898Z,22.67
2018-10-18T16:33:36.929Z,23.30
2018-10-18T16:36:04.688Z,22.65
2018-10-18T16:38:32.341Z,24.00
2018-10-18T16:41:00.001Z,23.90
2018-10-18T16:43:27.628Z,23.57
2018-10-18T16:45:55.321Z,23.33
2018-10-18T16:48:23.009Z,21.97
2018-10-18T16:50:50.548Z,24.00
2018-10-18T16:53:18.066Z,45.58
2018-10-18T16:55:45.615Z,51.28
2018-10-18T16:58:13.263Z,24.77
2018-10-18T17:00:40.767Z,22.30
2018-10-18T17:03:08.336Z,23.37
2018-10-18T17:05:35.981Z,21.20
2018-10-18T17:08:03.626Z,23.10
2018-10-18T17:10:31.149Z,22.13
2018-10-18T17:12:59.143Z,21.50
2018-10-18T17:15:26.796Z,23.40
2018-10-18T17:17:54.509Z,22.35
2018-10-18T17:20:22.038Z,22.65
2018-10-18T17:22:49.535Z,21.95
2018-10-18T17:25:17.077Z,22.98
2018-10-18T17:27:44.969Z,23.40
2018-10-18T17:30:12.551Z,21.97
2018-10-18T17:32:40.137Z,23.60
2018-10-18T17:35:07.674Z,21.25
2018-10-18T17:37:35.410Z,22.82
2018-10-18T17:40:04.568Z,21.95
2018-10-18T17:42:32.199Z,22.27
2018-10-18T17:45:00.098Z,23.60
2018-10-18T17:47:27.801Z,24.37
2018-10-18T17:49:55.452Z,23.12
2018-10-18T17:52:23.043Z,22.60
2018-10-18T17:54:50.577Z,22.17
2018-10-18T17:57:18.203Z,22.43
2018-10-18T17:59:45.862Z,23.42
2018-10-18T18:02:13.421Z,22.62
2018-10-18T18:04:41.148Z,21.17
2018-10-18T18:07:10.009Z,23.63
2018-10-18T18:09:37.564Z,21.82
2018-10-18T18:12:05.261Z,23.77
2018-10-18T18:14:32.843Z,22.30
2018-10-18T18:17:00.380Z,22.73
2018-10-18T18:19:29.304Z,24.03
2018-10-18T18:21:58.155Z,24.30
2018-10-18T18:24:26.442Z,26.63
2018-10-18T18:26:54.220Z,25.55
2018-10-18T18:29:25.811Z,24.60
2018-10-18T18:31:53.288Z,23.53
2018-10-18T18:34:20.773Z,24.17
2018-10-18T18:36:55.196Z,24.93
2018-10-18T18:39:22.775Z,25.05
2018-10-18T18:41:50.234Z,24.83
2018-10-18T18:44:18.954Z,25.17
2018-10-18T18:46:46.487Z,24.33
2018-10-18T18:49:13.926Z,25.03
2018-10-18T18:51:41.544Z,24.90
2018-10-18T18:54:09.100Z,25.57
2018-10-18T18:56:36.600Z,25.40
2018-10-18T18:59:10.175Z,24.13
2018-10-18T19:01:37.691Z,24.17
2018-10-18T19:04:05.531Z,24.35
2018-10-18T19:06:33.037Z,23.10
2018-10-18T19:09:00.653Z,24.90
2018-10-18T19:11:28.295Z,24.20
2018-10-18T19:13:55.765Z,22.95
2018-10-18T19:16:23.184Z,23.57
2018-10-18T19:18:51.078Z,23.53
2018-10-18T19:21:18.541Z,23.60
2018-10-18T19:23:46.403Z,23.30
2018-10-18T19:26:13.942Z,23.93
2018-10-18T19:28:41.407Z,25.13
2018-10-18T19:31:08.811Z,23.50
2018-10-18T19:33:36.263Z,23.23
2018-10-18T19:36:04.493Z,23.53
2018-10-18T19:38:32.110Z,23.63
2018-10-18T19:40:59.652Z,24.80
2018-10-18T19:43:27.115Z,23.30
2018-10-18T19:45:54.572Z,23.57
2018-10-18T19:48:21.982Z,22.23
2018-10-18T19:50:50.041Z,22.17
2018-10-18T19:53:17.479Z,23.40
2018-10-18T19:55:44.903Z,22.57
2018-10-18T19:58:12.477Z,23.13
2018-10-18T20:00:43.111Z,23.03
2018-10-18T20:03:10.560Z,22.53
2018-10-18T20:05:38.247Z,22.60
2018-10-18T20:08:06.393Z,22.83
2018-10-18T20:10:34.303Z,24.00
2018-10-18T20:13:02.824Z,23.00
2018-10-18T20:15:30.359Z,22.33
2018-10-18T20:17:58.322Z,22.20
2018-10-18T20:20:25.743Z,22.50
2018-10-18T20:22:53.237Z,23.27
2018-10-18T20:25:20.861Z,23.50
2018-10-18T20:27:48.319Z,23.00
2018-10-18T20:30:15.891Z,23.33
2018-10-18T20:32:43.219Z,23.03
2018-10-18T20:35:11.353Z,22.33
2018-10-18T20:37:39.479Z,22.70
2018-10-18T20:40:08.835Z,22.87
2018-10-18T20:42:36.259Z,21.70
2018-10-18T20:45:04.123Z,21.87
2018-10-18T20:47:31.625Z,22.20
2018-10-18T20:49:58.969Z,22.03
2018-10-18T20:52:26.655Z,21.07
2018-10-18T20:54:54.099Z,22.47
2018-10-18T20:57:21.619Z,21.70
2018-10-18T20:59:49.095Z,20.03
2018-10-18T21:02:16.542Z,20.20
2018-10-18T21:04:43.982Z,21.73
2018-10-18T21:07:11.443Z,20.70
2018-10-18T21:09:38.884Z,20.83
2018-10-18T21:12:06.404Z,20.10
2018-10-18T21:14:33.799Z,18.60
2018-10-18T21:17:01.327Z,18.47
2018-10-18T21:19:28.789Z,19.23
2018-10-18T21:21:56.535Z,17.90
2018-10-18T21:24:25.991Z,16.27
2018-10-18T21:26:53.556Z,16.20
2018-10-18T21:29:22.090Z,14.80
2018-10-18T21:31:51.709Z,14.07
2018-10-18T21:34:20.861Z,14.57
2018-10-18T21:36:48.335Z,13.40
2018-10-18T21:39:33.551Z,13.57
2018-10-18T21:42:04.311Z,13.20
2018-10-18T21:44:33.615Z,12.97
2018-10-18T21:47:01.419Z,13.20
2018-10-18T21:49:29.571Z,10.70
2018-10-18T21:51:57.332Z,11.00
2018-10-18T21:54:25.404Z,10.67
2018-10-18T21:56:52.892Z,11.00
2018-10-18T21:59:20.335Z,9.57
2018-10-18T22:01:47.892Z,9.07
2018-10-18T22:04:16.070Z,9.03
2018-10-18T22:06:43.911Z,8.77
2018-10-18T22:09:11.431Z,8.77
2018-10-18T22:11:38.839Z,8.20
2018-10-18T22:14:07.159Z,8.17
2018-10-18T22:16:34.972Z,7.67
2018-10-18T22:19:02.726Z,7.07
2018-10-18T22:21:30.229Z,8.00
2018-10-18T22:23:57.727Z,7.63
2018-10-18T22:26:25.184Z,6.87
2018-10-18T22:28:52.739Z,7.57
2018-10-18T22:31:20.214Z,7.13
2018-10-18T22:33:47.684Z,6.73
2018-10-18T22:36:15.218Z,6.47
2018-10-18T22:38:42.763Z,6.57
2018-10-18T22:41:10.327Z,7.20
2018-10-18T22:43:37.690Z,6.23
2018-10-18T22:46:05.188Z,6.43
2018-10-18T22:48:32.605Z,5.73
2018-10-18T22:51:00.103Z,5.53
2018-10-18T22:53:27.917Z,5.60
2018-10-18T22:55:55.449Z,5.47
2018-10-18T22:58:22.965Z,5.47
2018-10-18T23:00:50.424Z,5.17
2018-10-18T23:03:19.927Z,6.13
2018-10-18T23:05:47.907Z,5.03
2018-10-18T23:08:15.475Z,5.43
2018-10-18T23:10:43.090Z,5.57
2018-10-18T23:13:10.521Z,4.77
2018-10-18T23:15:38.095Z,4.67
2018-10-18T23:18:06.115Z,5.50
2018-10-18T23:20:33.557Z,5.07
2018-10-18T23:23:01.082Z,5.13
2018-10-18T23:25:28.548Z,4.83
2018-10-18T23:27:55.990Z,5.03
2018-10-18T23:30:23.478Z,4.47
2018-10-18T23:32:50.991Z,4.43
2018-10-18T23:35:18.444Z,4.27
2018-10-18T23:37:45.863Z,4.60
2018-10-18T23:40:13.380Z,4.83
2018-10-18T23:42:40.808Z,4.43
2018-10-18T23:45:08.800Z,5.07
2018-10-18T23:47:36.231Z,4.77
2018-10-18T23:50:03.799Z,3.90
2018-10-18T23:52:31.579Z,4.73
2018-10-18T23:54:59.120Z,4.73
2018-10-18T23:57:26.543Z,4.90
2018-10-18T23:59:53.967Z,4.27
